KARB/ARB METAR and TAF weather

Enter ICAO airport designator
Station Type Date Time Source
KARB METAR 2019/10/16 18:53 UTC NOAA

KARB 161853Z 29018G27KT 10SM -RA BKN013 BKN020 OVC043 10/08 A2962 RMK AO2 SLP032 P0000 T01000078


Station Type Date Time Source
KARB Decoded METAR 2019/10/16 18:53 UTC NOAA

ANN ARBOR MUNICIPAL AIRPORT, MI, United States (KARB) 42-13N 083-45W 251M
Oct 16, 2019 - 02:53 PM EDT / 2019.10.16 1853 UTC
Wind: from the WNW (290 degrees) at 21 MPH (18 KT) gusting to 31 MPH (27 KT):0
Visibility: 10 mile(s):0
Sky conditions: overcast
Weather: light rain
Precipitation last hour: A trace
Temperature: 50.0 F (10.0 C)
Dew Point: 46.0 F (7.8 C)
Relative Humidity: 86%
Pressure (altimeter): 29.62 in. Hg (1003 hPa)
ob: KARB 161853Z 29018G27KT 10SM -RA BKN013 BKN020 OVC043 10/08 A2962 RMK AO2 SLP032 P0000 T01000078
cycle: 19

Station Type Date Time Source
KARB TAF UTC NOAA

Error!

Example: see airport list